Time;durP1;ratioP1;P1;durP2;ratioP2;P2;SDS_P1;SDS_P2;PMS_P1;PMS_P2;Temp;Humidity;BMP_temperature;BMP_pressure;BME280_temperature;BME280_humidity;BME280_pressure;Samples;Min_cycle;Max_cycle;Signal;HPM_P1;HPM_P2
2021/10/09 00:00:30;;;;;;;52.95;29.52;;;;;;;;;;5053915;28;20061;-63
2021/10/09 00:02:57;;;;;;;49.45;27.00;;;;;;;;;;5038622;28;20693;-64
2021/10/09 00:05:23;;;;;;;49.60;27.98;;;;;;;;;;5052794;28;20048;-63
2021/10/09 00:07:49;;;;;;;47.90;27.38;;;;;;;;;;5058080;28;20049;-63
2021/10/09 00:10:25;;;;;;;49.38;29.40;;;;;;;;;;5048140;28;20052;-64
2021/10/09 00:12:51;;;;;;;51.10;27.35;;;;;;;;;;5064380;28;20588;-64
2021/10/09 00:15:18;;;;;;;47.63;27.73;;;;;;;;;;5045811;28;20047;-63
2021/10/09 00:17:44;;;;;;;47.35;27.38;;;;;;;;;;5065626;28;20047;-63
2021/10/09 00:20:11;;;;;;;50.45;27.45;;;;;;;;;;5020586;28;20051;-64
2021/10/09 00:22:37;;;;;;;47.53;25.83;;;;;;;;;;5063562;28;20489;-63
2021/10/09 00:25:04;;;;;;;47.55;27.35;;;;;;;;;;5054099;28;20041;-64
2021/10/09 00:27:31;;;;;;;54.63;27.55;;;;;;;;;;5065416;28;20040;-62
2021/10/09 00:29:57;;;;;;;47.08;27.58;;;;;;;;;;5049696;28;20091;-62
2021/10/09 00:32:24;;;;;;;54.35;29.02;;;;;;;;;;5053249;28;20044;-63
2021/10/09 00:34:50;;;;;;;46.70;26.48;;;;;;;;;;5059198;28;20040;-62
2021/10/09 00:37:16;;;;;;;50.42;27.00;;;;;;;;;;5056001;28;20040;-64
2021/10/09 00:39:43;;;;;;;48.75;25.92;;;;;;;;;;5066284;28;20374;-63
2021/10/09 00:42:09;;;;;;;50.05;28.95;;;;;;;;;;5057690;28;20097;-64
2021/10/09 00:44:39;;;;;;;54.47;29.02;;;;;;;;;;5064758;28;20505;-63
2021/10/09 00:47:05;;;;;;;53.80;28.25;;;;;;;;;;5059863;28;20091;-63
2021/10/09 00:49:32;;;;;;;49.75;27.90;;;;;;;;;;5043842;28;20053;-62
2021/10/09 00:51:59;;;;;;;50.30;27.25;;;;;;;;;;5064885;28;20047;-63
2021/10/09 00:54:26;;;;;;;56.70;28.05;;;;;;;;;;5048816;28;20052;-63
2021/10/09 00:56:55;;;;;;;50.35;27.23;;;;;;;;;;5069233;28;20533;-61
2021/10/09 00:59:24;;;;;;;47.25;27.05;;;;;;;;;;5051395;28;20236;-63
2021/10/09 01:01:51;;;;;;;49.88;27.58;;;;;;;;;;5056743;28;20044;-63
2021/10/09 01:04:18;;;;;;;52.58;29.27;;;;;;;;;;5056214;28;20330;-63
2021/10/09 01:06:45;;;;;;;51.17;29.02;;;;;;;;;;5054168;28;20048;-63
2021/10/09 01:09:11;;;;;;;49.58;27.77;;;;;;;;;;5050311;28;20124;-63
2021/10/09 01:11:39;;;;;;;55.42;30.15;;;;;;;;;;5055841;28;20048;-63
2021/10/09 01:14:05;;;;;;;51.50;29.20;;;;;;;;;;5049358;28;20052;-63
2021/10/09 01:16:32;;;;;;;51.45;29.05;;;;;;;;;;5052685;28;20045;-64
2021/10/09 01:18:59;;;;;;;54.08;28.95;;;;;;;;;;5054460;28;20144;-62
2021/10/09 01:21:25;;;;;;;51.42;28.35;;;;;;;;;;5066625;28;20059;-63
2021/10/09 01:23:53;;;;;;;54.65;29.23;;;;;;;;;;5044089;28;20056;-64
2021/10/09 01:26:19;;;;;;;52.80;28.60;;;;;;;;;;5060291;28;20049;-63
2021/10/09 01:28:50;;;;;;;54.65;28.48;;;;;;;;;;5041653;28;20839;-63
2021/10/09 01:31:17;;;;;;;55.97;28.75;;;;;;;;;;5063883;28;20078;-63
2021/10/09 01:33:44;;;;;;;55.80;30.85;;;;;;;;;;5043564;28;20053;-63
2021/10/09 01:36:10;;;;;;;52.95;30.23;;;;;;;;;;5063587;28;20052;-63
2021/10/09 01:38:38;;;;;;;60.05;30.58;;;;;;;;;;5053368;28;20048;-63
2021/10/09 01:41:05;;;;;;;55.28;30.38;;;;;;;;;;5051065;28;20091;-64
2021/10/09 01:43:32;;;;;;;63.92;32.88;;;;;;;;;;5058849;28;20067;-63
2021/10/09 01:45:58;;;;;;;67.80;32.55;;;;;;;;;;5056912;28;20045;-64
2021/10/09 01:48:28;;;;;;;68.65;35.28;;;;;;;;;;5065761;28;20044;-64
2021/10/09 01:50:54;;;;;;;62.47;32.63;;;;;;;;;;5055522;28;20048;-64
2021/10/09 01:53:21;;;;;;;64.95;34.60;;;;;;;;;;5060462;28;20059;-63
2021/10/09 01:55:47;;;;;;;67.35;32.70;;;;;;;;;;5054134;28;20048;-63
2021/10/09 01:58:13;;;;;;;63.45;33.00;;;;;;;;;;5052188;28;20048;-63
2021/10/09 02:00:39;;;;;;;61.80;33.83;;;;;;;;;;5055817;28;20516;-63
2021/10/09 02:03:07;;;;;;;68.50;34.05;;;;;;;;;;5050972;28;20048;-63
2021/10/09 02:05:35;;;;;;;65.20;33.03;;;;;;;;;;5062370;28;20052;-62
2021/10/09 02:08:02;;;;;;;69.43;35.47;;;;;;;;;;5046732;28;20486;-63
2021/10/09 02:10:29;;;;;;;72.07;35.58;;;;;;;;;;5051112;28;20083;-63
2021/10/09 02:12:57;;;;;;;71.18;36.50;;;;;;;;;;5048985;28;20056;-63
2021/10/09 02:15:33;;;;;;;;;;;;;;;;;;5056961;28;20053;-63
2021/10/09 02:26:03;;;;;;;64.10;33.28;;;;;;;;;;5056400;28;20056;-63
2021/10/09 02:28:29;;;;;;;66.10;34.50;;;;;;;;;;5058915;28;20552;-63
2021/10/09 02:30:56;;;;;;;69.13;34.97;;;;;;;;;;5066847;28;20366;-63
2021/10/09 02:33:22;;;;;;;69.85;34.95;;;;;;;;;;5040501;28;20048;-63
2021/10/09 02:35:48;;;;;;;70.68;35.55;;;;;;;;;;5060039;28;20059;-63
2021/10/09 02:38:15;;;;;;;66.38;33.58;;;;;;;;;;5044153;28;20048;-63
2021/10/09 02:40:42;;;;;;;68.22;34.47;;;;;;;;;;5062567;28;20049;-63
2021/10/09 02:43:08;;;;;;;69.15;33.30;;;;;;;;;;5045525;28;20044;-64
2021/10/09 02:45:35;;;;;;;75.70;35.13;;;;;;;;;;5062368;28;20052;-63
2021/10/09 02:48:02;;;;;;;64.20;32.72;;;;;;;;;;5053497;28;20055;-63
2021/10/09 02:50:29;;;;;;;67.57;33.40;;;;;;;;;;5051547;28;20067;-63
2021/10/09 02:52:56;;;;;;;71.47;34.60;;;;;;;;;;5051445;28;20048;-63
2021/10/09 02:55:22;;;;;;;62.38;32.53;;;;;;;;;;5054385;28;20063;-63
2021/10/09 02:57:49;;;;;;;62.60;31.90;;;;;;;;;;5059397;28;20072;-63
2021/10/09 03:00:16;;;;;;;67.88;33.47;;;;;;;;;;5051734;28;20052;-63
2021/10/09 03:02:43;;;;;;;65.90;34.00;;;;;;;;;;5029418;28;20052;-63
2021/10/09 03:05:11;;;;;;;72.82;35.00;;;;;;;;;;5048711;28;20056;-63
2021/10/09 03:07:37;;;;;;;62.28;32.92;;;;;;;;;;5054552;28;20060;-63
2021/10/09 03:10:04;;;;;;;65.13;34.33;;;;;;;;;;5060970;28;20048;-63
2021/10/09 03:12:31;;;;;;;70.72;34.75;;;;;;;;;;5041007;28;20433;-63
2021/10/09 03:14:57;;;;;;;69.47;34.65;;;;;;;;;;5057471;28;20064;-63
2021/10/09 03:17:23;;;;;;;70.13;36.15;;;;;;;;;;5055312;28;20048;-63
2021/10/09 03:19:49;;;;;;;73.53;34.20;;;;;;;;;;5050072;28;20075;-63
2021/10/09 03:22:16;;;;;;;77.20;36.33;;;;;;;;;;5043831;28;20076;-63
2021/10/09 03:24:42;;;;;;;70.72;35.45;;;;;;;;;;5054687;28;20446;-63
2021/10/09 03:27:09;;;;;;;72.93;35.95;;;;;;;;;;5063629;28;20416;-63
2021/10/09 03:29:35;;;;;;;68.57;33.17;;;;;;;;;;5054434;28;20161;-63
2021/10/09 03:32:02;;;;;;;76.38;35.40;;;;;;;;;;5047137;28;20061;-63
2021/10/09 03:34:32;;;;;;;70.63;35.00;;;;;;;;;;5042093;28;20417;-63
2021/10/09 03:37:00;;;;;;;68.35;34.08;;;;;;;;;;5061348;28;20064;-63
2021/10/09 03:39:26;;;;;;;75.85;38.10;;;;;;;;;;5061287;28;20048;-63
2021/10/09 03:41:57;;;;;;;68.80;33.95;;;;;;;;;;5054924;28;20497;-63
2021/10/09 03:44:24;;;;;;;68.70;34.03;;;;;;;;;;5061605;28;20068;-63
2021/10/09 03:54:58;;;;;;;72.88;33.70;;;;;;;;;;5064963;28;20048;-63
2021/10/09 03:57:25;;;;;;;74.68;35.58;;;;;;;;;;5058584;28;20537;-63
2021/10/09 03:59:51;;;;;;;71.43;34.58;;;;;;;;;;5058481;28;20517;-63
2021/10/09 04:02:17;;;;;;;70.55;34.88;;;;;;;;;;5042954;28;20071;-63
2021/10/09 04:04:44;;;;;;;70.95;34.38;;;;;;;;;;5041600;28;20109;-63
2021/10/09 04:07:10;;;;;;;71.90;34.10;;;;;;;;;;5054780;28;20052;-63
2021/10/09 04:09:37;;;;;;;76.45;34.92;;;;;;;;;;5056864;28;20051;-63
2021/10/09 04:12:03;;;;;;;67.80;33.90;;;;;;;;;;5053962;28;20044;-64
2021/10/09 04:14:29;;;;;;;64.85;33.60;;;;;;;;;;5052987;28;20053;-63
2021/10/09 04:16:56;;;;;;;69.85;34.58;;;;;;;;;;5040964;28;20049;-63
2021/10/09 04:19:22;;;;;;;73.20;32.63;;;;;;;;;;5059564;28;20059;-63
2021/10/09 04:21:48;;;;;;;72.75;34.53;;;;;;;;;;5053041;28;20056;-63
2021/10/09 04:24:18;;;;;;;73.38;34.58;;;;;;;;;;5057832;28;20060;-63
2021/10/09 04:26:48;;;;;;;74.97;33.75;;;;;;;;;;5051778;28;20139;-63
2021/10/09 04:29:14;;;;;;;70.30;34.60;;;;;;;;;;5058064;28;20868;-63
2021/10/09 04:31:41;;;;;;;65.47;33.58;;;;;;;;;;5048062;28;20060;-63
2021/10/09 04:34:07;;;;;;;71.80;32.97;;;;;;;;;;5067017;28;20052;-63
2021/10/09 04:36:33;;;;;;;76.60;33.78;;;;;;;;;;5053215;28;20044;-63
2021/10/09 04:38:59;;;;;;;76.30;34.60;;;;;;;;;;5062123;28;20055;-63
2021/10/09 04:41:26;;;;;;;69.93;33.15;;;;;;;;;;5032228;28;20393;-63
2021/10/09 04:43:52;;;;;;;66.78;32.72;;;;;;;;;;5051485;28;20271;-63
2021/10/09 04:46:19;;;;;;;72.72;34.15;;;;;;;;;;5065946;28;20497;-63
2021/10/09 04:48:45;;;;;;;73.38;33.28;;;;;;;;;;5055092;28;20051;-63
2021/10/09 04:51:12;;;;;;;66.35;30.98;;;;;;;;;;5054607;28;20049;-63
2021/10/09 04:53:38;;;;;;;70.43;31.88;;;;;;;;;;5057191;28;20045;-63
2021/10/09 04:56:05;;;;;;;66.15;30.73;;;;;;;;;;5063080;28;20047;-63
2021/10/09 04:58:31;;;;;;;60.83;29.60;;;;;;;;;;5058437;28;20049;-63
2021/10/09 05:00:58;;;;;;;66.18;30.70;;;;;;;;;;5051874;28;20890;-63
2021/10/09 05:03:24;;;;;;;64.07;31.10;;;;;;;;;;5062872;28;20044;-63
2021/10/09 05:05:51;;;;;;;59.15;29.80;;;;;;;;;;5045487;28;20103;-62
2021/10/09 05:08:17;;;;;;;63.80;29.45;;;;;;;;;;5042674;28;20040;-63
2021/10/09 05:10:44;;;;;;;61.42;29.45;;;;;;;;;;5063860;28;20195;-63
2021/10/09 05:13:10;;;;;;;62.03;31.30;;;;;;;;;;5053740;28;20048;-63
2021/10/09 05:15:44;;;;;;;67.65;31.05;;;;;;;;;;5060962;28;20044;-63
2021/10/09 05:18:11;;;;;;;63.97;31.05;;;;;;;;;;5059403;28;20052;-63
2021/10/09 05:20:38;;;;;;;70.15;30.65;;;;;;;;;;5056554;28;20482;-65
2021/10/09 05:23:04;;;;;;;71.80;30.98;;;;;;;;;;5054878;28;20044;-63
2021/10/09 05:25:33;;;;;;;66.53;31.67;;;;;;;;;;5053610;28;20044;-63
2021/10/09 05:28:07;;;;;;;70.40;32.72;;;;;;;;;;5061577;28;20053;-63
2021/10/09 05:30:34;;;;;;;64.22;31.42;;;;;;;;;;5047153;28;20433;-63
2021/10/09 05:33:23;;;;;;;63.75;30.05;;;;;;;;;;5055789;28;20076;-63
2021/10/09 05:35:49;;;;;;;69.75;30.42;;;;;;;;;;5040949;28;20057;-63
2021/10/09 05:38:15;;;;;;;66.03;31.60;;;;;;;;;;5056684;28;20095;-63
2021/10/09 05:40:42;;;;;;;69.40;30.23;;;;;;;;;;5047815;28;20055;-63
2021/10/09 05:43:08;;;;;;;63.05;29.98;;;;;;;;;;5062154;28;20057;-63
2021/10/09 05:45:34;;;;;;;68.75;31.25;;;;;;;;;;5051308;28;20052;-63
2021/10/09 05:48:01;;;;;;;65.45;30.55;;;;;;;;;;5063372;28;20459;-64
2021/10/09 05:50:33;;;;;;;64.22;30.15;;;;;;;;;;5050610;28;20127;-63
2021/10/09 05:53:12;;;;;;;67.47;31.60;;;;;;;;;;5046029;28;20052;-63
2021/10/09 05:55:49;;;;;;;;;;;;;;;;;;5065961;28;20448;-63
2021/10/09 05:58:27;;;;;;;64.13;31.30;;;;;;;;;;5051320;28;20054;-63
2021/10/09 06:30:57;;;;;;;70.88;32.92;;;;;;;;;;5050837;28;20064;-63
2021/10/09 07:00:48;;;;;;;66.80;31.20;;;;;;;;;;5033274;28;20053;-63
2021/10/09 07:03:18;;;;;;;68.40;31.73;;;;;;;;;;5056221;28;20063;-63
2021/10/09 07:05:45;;;;;;;64.82;30.15;;;;;;;;;;5026499;28;20048;-63
2021/10/09 07:08:11;;;;;;;70.38;31.75;;;;;;;;;;5062507;28;20056;-63
2021/10/09 07:10:39;;;;;;;66.55;32.17;;;;;;;;;;5064477;28;20056;-63
2021/10/09 07:13:06;;;;;;;64.55;32.53;;;;;;;;;;5049814;28;20045;-63
2021/10/09 07:15:32;;;;;;;75.75;33.90;;;;;;;;;;5062930;28;20052;-63
2021/10/09 07:18:01;;;;;;;80.60;36.33;;;;;;;;;;5056993;28;20418;-63
2021/10/09 07:20:29;;;;;;;71.70;32.90;;;;;;;;;;5051375;28;20052;-63
2021/10/09 07:22:55;;;;;;;75.63;33.00;;;;;;;;;;5054901;28;20055;-64
2021/10/09 07:25:22;;;;;;;73.20;34.42;;;;;;;;;;5061247;28;20059;-63
2021/10/09 07:27:49;;;;;;;74.28;34.83;;;;;;;;;;5056942;28;20051;-63
2021/10/09 07:30:15;;;;;;;72.93;34.60;;;;;;;;;;5039199;28;20045;-63
2021/10/09 07:32:44;;;;;;;69.82;33.63;;;;;;;;;;5059646;28;20411;-63
2021/10/09 07:35:11;;;;;;;71.47;34.13;;;;;;;;;;5051679;28;20045;-63
2021/10/09 07:37:37;;;;;;;70.15;33.78;;;;;;;;;;5064352;28;20136;-63
2021/10/09 07:40:05;;;;;;;65.82;31.92;;;;;;;;;;5043649;28;20052;-63
2021/10/09 07:42:31;;;;;;;67.43;33.10;;;;;;;;;;5056120;28;20052;-63
2021/10/09 07:44:57;;;;;;;71.15;33.67;;;;;;;;;;5058186;28;20048;-63
2021/10/09 07:47:23;;;;;;;73.18;32.53;;;;;;;;;;5052036;28;20619;-64
2021/10/09 07:49:50;;;;;;;71.53;32.53;;;;;;;;;;5054518;28;20385;-64
2021/10/09 07:52:16;;;;;;;77.35;33.30;;;;;;;;;;5050963;28;20066;-63
2021/10/09 07:54:43;;;;;;;74.72;32.97;;;;;;;;;;5058223;28;20049;-63
2021/10/09 07:57:09;;;;;;;68.00;30.77;;;;;;;;;;5040511;28;20056;-63
2021/10/09 07:59:35;;;;;;;78.22;33.13;;;;;;;;;;5051092;28;20383;-64
2021/10/09 08:02:03;;;;;;;73.97;30.27;;;;;;;;;;5055062;28;20480;-63
2021/10/09 08:04:30;;;;;;;71.75;31.67;;;;;;;;;;5052320;28;20060;-64
2021/10/09 08:06:56;;;;;;;71.70;32.58;;;;;;;;;;5064514;28;20048;-64
2021/10/09 08:09:26;;;;;;;71.03;31.98;;;;;;;;;;5046618;28;20517;-63
2021/10/09 08:11:52;;;;;;;74.20;33.03;;;;;;;;;;5051836;28;20147;-64
2021/10/09 08:14:19;;;;;;;73.22;34.45;;;;;;;;;;5048576;28;20091;-63
2021/10/09 08:16:45;;;;;;;69.05;32.28;;;;;;;;;;5062491;28;20052;-63
2021/10/09 08:19:11;;;;;;;65.57;31.00;;;;;;;;;;5057372;28;20063;-63
2021/10/09 08:21:41;;;;;;;69.03;32.10;;;;;;;;;;5058989;28;20051;-63
2021/10/09 08:35:32;;;;;;;77.00;33.45;;;;;;;;;;5067573;28;20069;-63
2021/10/09 08:40:43;;;;;;;72.95;35.13;;;;;;;;;;5046969;28;20497;-63
2021/10/09 08:43:10;;;;;;;74.30;33.28;;;;;;;;;;5057988;28;20063;-63
2021/10/09 08:45:36;;;;;;;80.15;34.63;;;;;;;;;;5049855;28;20355;-63
2021/10/09 08:48:03;;;;;;;74.85;34.25;;;;;;;;;;5060131;28;20053;-64
2021/10/09 08:50:30;;;;;;;74.72;33.42;;;;;;;;;;5053948;28;20095;-63
2021/10/09 08:53:11;;;;;;;64.03;29.33;;;;;;;;;;5061599;28;20044;-63
2021/10/09 08:55:38;;;;;;;76.30;32.97;;;;;;;;;;5056326;28;21238;-63
2021/10/09 08:58:12;;;;;;;78.47;35.60;;;;;;;;;;5064462;28;20040;-63
2021/10/09 09:03:25;;;;;;;72.70;34.58;;;;;;;;;;5062786;28;20060;-63
2021/10/09 09:06:02;;;;;;;81.90;36.30;;;;;;;;;;5039810;28;20044;-63
2021/10/09 09:08:55;;;;;;;79.93;37.55;;;;;;;;;;5054049;28;20514;-63
2021/10/09 09:25:40;;;;;;;68.28;33.20;;;;;;;;;;5053893;28;20053;-63
2021/10/09 09:34:16;;;;;;;70.38;32.53;;;;;;;;;;4959340;28;20062;-63
2021/10/09 09:37:02;;;;;;;56.15;27.48;;;;;;;;;;4958043;28;20042;-63
2021/10/09 09:39:39;;;;;;;68.05;29.92;;;;;;;;;;5022588;28;20041;-63
2021/10/09 09:42:06;;;;;;;69.63;32.80;;;;;;;;;;5053300;28;20044;-63
2021/10/09 09:44:33;;;;;;;70.20;34.00;;;;;;;;;;5046700;28;20104;-63
2021/10/09 09:47:04;;;;;;;65.85;32.13;;;;;;;;;;5059953;28;20423;-63
2021/10/09 09:49:51;;;;;;;63.90;32.33;;;;;;;;;;5045139;28;20286;-64
2021/10/09 09:52:17;;;;;;;74.55;34.75;;;;;;;;;;5039148;28;20052;-63
2021/10/09 09:54:44;;;;;;;62.92;30.58;;;;;;;;;;5064236;28;20063;-64
2021/10/09 09:57:11;;;;;;;67.13;32.67;;;;;;;;;;5059579;28;20052;-63
2021/10/09 09:59:38;;;;;;;70.75;31.17;;;;;;;;;;5064032;28;20052;-64
2021/10/09 10:02:04;;;;;;;81.20;35.10;;;;;;;;;;5057501;28;20063;-63
2021/10/09 10:04:32;;;;;;;70.82;32.60;;;;;;;;;;5041661;28;20524;-63
2021/10/09 10:06:59;;;;;;;57.60;28.33;;;;;;;;;;5059482;28;20048;-63
2021/10/09 10:09:28;;;;;;;65.28;30.70;;;;;;;;;;5048710;28;20063;-64
2021/10/09 10:11:59;;;;;;;69.63;31.20;;;;;;;;;;5064083;28;20048;-64
2021/10/09 10:14:27;;;;;;;56.65;28.35;;;;;;;;;;5040009;28;20827;-64
2021/10/09 10:16:54;;;;;;;62.40;32.25;;;;;;;;;;5053232;28;20052;-64
2021/10/09 10:19:40;;;;;;;61.03;31.45;;;;;;;;;;5053266;28;20056;-64
2021/10/09 10:22:06;;;;;;;68.10;31.00;;;;;;;;;;5059763;28;20482;-64
2021/10/09 10:24:44;;;;;;;63.42;30.17;;;;;;;;;;5057565;28;20125;-64
2021/10/09 10:27:31;;;;;;;65.18;31.88;;;;;;;;;;5053072;28;20465;-64
2021/10/09 10:30:15;;;;;;;67.20;32.70;;;;;;;;;;5038597;28;20057;-64
2021/10/09 10:32:54;;;;;;;61.05;29.55;;;;;;;;;;5051024;28;20450;-64
2021/10/09 10:35:32;;;;;;;62.90;30.63;;;;;;;;;;5055679;28;20163;-64
2021/10/09 10:38:03;;;;;;;76.50;33.67;;;;;;;;;;5046808;28;20057;-64
2021/10/09 10:40:49;;;;;;;64.65;31.35;;;;;;;;;;5052027;28;20505;-64
2021/10/09 10:46:16;;;;;;;61.13;30.20;;;;;;;;;;5054546;28;20550;-63
2021/10/09 10:48:48;;;;;;;59.45;30.25;;;;;;;;;;5050425;28;20818;-63
2021/10/09 10:54:22;;;;;;;59.35;28.90;;;;;;;;;;5056656;28;20078;-63
2021/10/09 10:59:26;;;;;;;;;;;;;;;;;;5050494;28;20040;-64
2021/10/09 11:02:11;;;;;;;58.78;27.45;;;;;;;;;;5048733;28;20011;-64
2021/10/09 11:04:40;;;;;;;59.05;29.92;;;;;;;;;;5047117;28;20053;-63
2021/10/09 11:07:06;;;;;;;60.13;30.20;;;;;;;;;;5055324;28;20081;-64
2021/10/09 11:09:34;;;;;;;56.65;28.27;;;;;;;;;;5045808;28;20049;-64
2021/10/09 11:12:00;;;;;;;56.05;27.92;;;;;;;;;;5048761;28;20672;-64
2021/10/09 11:14:27;;;;;;;57.78;29.00;;;;;;;;;;5053206;28;20121;-64
2021/10/09 11:17:00;;;;;;;62.83;29.83;;;;;;;;;;5060448;28;20048;-64
2021/10/09 11:19:40;;;;;;;59.08;29.05;;;;;;;;;;5046395;28;20063;-64
2021/10/09 11:22:07;;;;;;;60.75;29.40;;;;;;;;;;5062015;28;20659;-64
2021/10/09 11:24:44;;;;;;;54.75;28.77;;;;;;;;;;5041363;28;20044;-65
2021/10/09 11:27:11;;;;;;;69.15;30.75;;;;;;;;;;5058272;28;20053;-64
2021/10/09 11:29:37;;;;;;;56.33;30.83;;;;;;;;;;5049388;28;20044;-64
2021/10/09 11:32:04;;;;;;;62.35;30.35;;;;;;;;;;5060743;28;20045;-64
2021/10/09 11:34:31;;;;;;;60.83;30.38;;;;;;;;;;5042113;28;20049;-64
2021/10/09 11:36:57;;;;;;;63.85;30.85;;;;;;;;;;5056943;28;20702;-65
2021/10/09 11:39:26;;;;;;;51.17;29.00;;;;;;;;;;5052750;28;20060;-65
2021/10/09 11:42:00;;;;;;;55.42;27.45;;;;;;;;;;5058869;28;20086;-64
2021/10/09 11:44:32;;;;;;;55.38;28.60;;;;;;;;;;5064666;28;20056;-64
2021/10/09 11:55:17;;;;;;;57.78;29.40;;;;;;;;;;5066581;28;20056;-64
2021/10/09 11:57:44;;;;;;;52.80;28.45;;;;;;;;;;5048092;28;20056;-64
2021/10/09 12:00:29;;;;;;;55.08;29.05;;;;;;;;;;5062819;28;20417;-66
2021/10/09 12:02:59;;;;;;;53.15;28.55;;;;;;;;;;5055079;28;20044;-64
2021/10/09 12:05:32;;;;;;;60.03;30.50;;;;;;;;;;5050495;28;20406;-65
2021/10/09 12:08:17;;;;;;;56.33;29.20;;;;;;;;;;5047853;28;20151;-64
2021/10/09 12:11:02;;;;;;;58.08;29.48;;;;;;;;;;5059762;28;20052;-63
2021/10/09 12:13:29;;;;;;;57.25;29.17;;;;;;;;;;5063382;28;20067;-64
2021/10/09 12:16:08;;;;;;;58.28;29.80;;;;;;;;;;5059297;28;20056;-65
2021/10/09 12:18:44;;;;;;;56.45;29.60;;;;;;;;;;5062882;28;20053;-65
2021/10/09 12:21:11;;;;;;;63.28;30.83;;;;;;;;;;5046135;28;20273;-65
2021/10/09 12:23:44;;;;;;;57.45;29.67;;;;;;;;;;5068254;28;20102;-64
2021/10/09 12:26:11;;;;;;;55.65;28.65;;;;;;;;;;5059032;28;20052;-64
2021/10/09 12:28:56;;;;;;;44.47;26.60;;;;;;;;;;5065308;28;20056;-65
2021/10/09 12:31:26;;;;;;;55.53;29.48;;;;;;;;;;5058133;28;20052;-64
2021/10/09 12:33:52;;;;;;;48.75;26.80;;;;;;;;;;5046212;28;20050;-64
2021/10/09 12:39:17;;;;;;;59.72;29.42;;;;;;;;;;5054753;28;20900;-64
2021/10/09 12:41:44;;;;;;;54.13;28.55;;;;;;;;;;5065032;28;20298;-65
2021/10/09 12:44:10;;;;;;;59.78;29.55;;;;;;;;;;5048190;28;20062;-64
2021/10/09 12:46:36;;;;;;;59.53;28.50;;;;;;;;;;5057679;28;20059;-64
2021/10/09 12:49:03;;;;;;;51.95;28.63;;;;;;;;;;5048678;28;20060;-64
2021/10/09 12:51:29;;;;;;;59.15;29.30;;;;;;;;;;5060958;28;20128;-65
2021/10/09 12:53:59;;;;;;;57.00;29.77;;;;;;;;;;5051387;28;20049;-64
2021/10/09 12:56:25;;;;;;;57.88;28.80;;;;;;;;;;5057511;28;21423;-65
2021/10/09 12:58:52;;;;;;;54.17;28.55;;;;;;;;;;5054575;28;20073;-64
2021/10/09 13:01:18;;;;;;;55.95;29.08;;;;;;;;;;5049421;28;20724;-64
2021/10/09 13:03:45;;;;;;;60.53;28.60;;;;;;;;;;5045649;28;20127;-64
2021/10/09 13:06:11;;;;;;;58.40;26.65;;;;;;;;;;5057936;28;20473;-64
2021/10/09 13:08:38;;;;;;;51.13;26.85;;;;;;;;;;5063706;28;20052;-64
2021/10/09 13:11:04;;;;;;;61.47;28.00;;;;;;;;;;5064906;28;20786;-64
2021/10/09 13:13:31;;;;;;;52.10;24.83;;;;;;;;;;5043734;28;21093;-64
2021/10/09 13:15:57;;;;;;;55.50;28.42;;;;;;;;;;5058967;28;20049;-64
2021/10/09 13:18:23;;;;;;;56.53;27.60;;;;;;;;;;5051757;28;20416;-64
2021/10/09 13:20:50;;;;;;;59.03;28.58;;;;;;;;;;5066767;28;20048;-64
2021/10/09 13:23:16;;;;;;;52.47;26.10;;;;;;;;;;5040330;28;20044;-64
2021/10/09 13:25:42;;;;;;;55.50;28.55;;;;;;;;;;5065302;28;20052;-64
2021/10/09 13:28:09;;;;;;;56.70;29.45;;;;;;;;;;5057182;28;20044;-64
2021/10/09 13:30:36;;;;;;;53.47;26.42;;;;;;;;;;5052338;28;20512;-64
2021/10/09 13:33:02;;;;;;;58.05;28.05;;;;;;;;;;5063571;28;20125;-64
2021/10/09 13:35:29;;;;;;;55.60;29.85;;;;;;;;;;5057079;28;20469;-63
2021/10/09 13:38:01;;;;;;;58.05;28.17;;;;;;;;;;5057387;28;20056;-64
2021/10/09 13:40:28;;;;;;;53.08;28.55;;;;;;;;;;5058294;28;20051;-63
2021/10/09 13:42:54;;;;;;;55.33;28.42;;;;;;;;;;5056385;28;20056;-64
2021/10/09 13:45:24;;;;;;;56.42;27.90;;;;;;;;;;5060768;28;20511;-64
2021/10/09 13:47:50;;;;;;;53.88;28.15;;;;;;;;;;5061628;28;20056;-64
2021/10/09 13:50:17;;;;;;;54.83;29.15;;;;;;;;;;5063980;28;20053;-63
2021/10/09 13:52:43;;;;;;;55.35;28.95;;;;;;;;;;5061869;28;20446;-64
2021/10/09 13:55:10;;;;;;;55.20;28.38;;;;;;;;;;5061311;28;20410;-64
2021/10/09 13:57:36;;;;;;;57.60;28.42;;;;;;;;;;5038899;28;20057;-63
2021/10/09 14:00:03;;;;;;;47.88;25.50;;;;;;;;;;5059123;28;20072;-63
2021/10/09 14:02:31;;;;;;;53.25;26.38;;;;;;;;;;5052891;28;20045;-63
2021/10/09 14:04:59;;;;;;;53.10;28.30;;;;;;;;;;5050504;28;20062;-63
2021/10/09 14:07:25;;;;;;;51.35;27.63;;;;;;;;;;5055091;28;20136;-64
2021/10/09 14:09:52;;;;;;;51.75;27.02;;;;;;;;;;5053298;28;20111;-64
2021/10/09 14:12:18;;;;;;;56.58;27.88;;;;;;;;;;5055875;28;20049;-64
2021/10/09 14:14:44;;;;;;;58.10;28.23;;;;;;;;;;5058992;28;20048;-64
2021/10/09 14:17:10;;;;;;;55.03;27.90;;;;;;;;;;5051983;28;20511;-64
2021/10/09 14:19:55;;;;;;;53.15;28.90;;;;;;;;;;5068300;28;20056;-65
2021/10/09 14:22:22;;;;;;;56.90;28.48;;;;;;;;;;5037308;28;20432;-64
2021/10/09 14:24:49;;;;;;;51.60;27.33;;;;;;;;;;5055460;28;20055;-64
2021/10/09 14:27:15;;;;;;;55.53;28.13;;;;;;;;;;5044777;28;20056;-64
2021/10/09 14:29:41;;;;;;;52.53;28.02;;;;;;;;;;5062642;28;20052;-64
2021/10/09 14:32:08;;;;;;;56.80;28.38;;;;;;;;;;5047519;28;20044;-64
2021/10/09 14:34:34;;;;;;;55.03;27.17;;;;;;;;;;5060086;28;20610;-64
2021/10/09 14:37:00;;;;;;;57.08;27.38;;;;;;;;;;5053521;28;20059;-64
2021/10/09 14:39:28;;;;;;;56.22;27.70;;;;;;;;;;5051636;28;20083;-64
2021/10/09 14:41:55;;;;;;;52.88;27.45;;;;;;;;;;5050809;28;20494;-64
2021/10/09 14:44:21;;;;;;;56.22;26.50;;;;;;;;;;5055008;28;20045;-64
2021/10/09 14:47:25;;;;;;;60.88;29.02;;;;;;;;;;5052535;28;20098;-64
2021/10/09 14:49:46;;;;;;;54.80;28.00;;;;;;;;;;5055391;28;20044;-64
2021/10/09 14:54:57;;;;;;;62.63;29.45;;;;;;;;;;5052327;28;20441;-65
2021/10/09 15:19:12;;;;;;;54.70;26.42;;;;;;;;;;5054278;28;20162;-64
2021/10/09 15:21:43;;;;;;;57.25;29.77;;;;;;;;;;5046890;28;20382;-64
2021/10/09 15:24:09;;;;;;;61.95;32.13;;;;;;;;;;5057452;28;20055;-64
2021/10/09 15:26:36;;;;;;;57.63;29.45;;;;;;;;;;5057385;28;20067;-64
2021/10/09 15:29:03;;;;;;;68.10;30.08;;;;;;;;;;5047849;28;20101;-64
2021/10/09 15:31:38;;;;;;;61.85;28.15;;;;;;;;;;5051699;28;20052;-64
2021/10/09 15:34:04;;;;;;;59.72;27.65;;;;;;;;;;5061190;28;20044;-64
2021/10/09 15:36:31;;;;;;;50.67;26.35;;;;;;;;;;5041805;28;20057;-64
2021/10/09 15:38:57;;;;;;;59.17;27.60;;;;;;;;;;5062384;28;20047;-64
2021/10/09 15:41:24;;;;;;;59.85;28.58;;;;;;;;;;5032896;28;20764;-63
2021/10/09 15:43:51;;;;;;;59.17;27.63;;;;;;;;;;5063036;28;20044;-63
2021/10/09 15:46:17;;;;;;;58.42;27.00;;;;;;;;;;5050422;28;20051;-63
2021/10/09 15:48:44;;;;;;;58.92;29.38;;;;;;;;;;5056564;28;20048;-63
2021/10/09 15:51:10;;;;;;;50.83;26.73;;;;;;;;;;5054278;28;20131;-64
2021/10/09 15:53:36;;;;;;;54.55;26.88;;;;;;;;;;5048575;28;20079;-63
2021/10/09 15:56:03;;;;;;;60.58;28.10;;;;;;;;;;5042502;28;20067;-64
2021/10/09 15:58:29;;;;;;;56.65;26.83;;;;;;;;;;5060592;28;20068;-64
2021/10/09 16:00:55;;;;;;;54.25;27.70;;;;;;;;;;5051772;28;20055;-64
2021/10/09 16:03:22;;;;;;;53.50;27.52;;;;;;;;;;5054815;28;20079;-64
2021/10/09 16:05:48;;;;;;;58.72;27.88;;;;;;;;;;5053016;28;20053;-64
2021/10/09 16:08:14;;;;;;;56.10;26.80;;;;;;;;;;5058384;28;20497;-63
2021/10/09 16:10:41;;;;;;;54.00;26.52;;;;;;;;;;5032182;28;20493;-63
2021/10/09 16:13:07;;;;;;;61.65;29.30;;;;;;;;;;5060074;28;20051;-64
2021/10/09 16:15:37;;;;;;;57.40;28.55;;;;;;;;;;5054304;28;20048;-64
2021/10/09 16:18:03;;;;;;;59.28;27.08;;;;;;;;;;5061893;28;20097;-64
2021/10/09 16:20:30;;;;;;;57.97;27.25;;;;;;;;;;5051006;28;20047;-64
2021/10/09 16:22:56;;;;;;;60.33;27.23;;;;;;;;;;5056493;28;20111;-63
2021/10/09 16:25:23;;;;;;;54.90;26.02;;;;;;;;;;5047806;28;20049;-63
2021/10/09 16:27:49;;;;;;;55.00;26.42;;;;;;;;;;5055845;28;20051;-64
2021/10/09 16:30:17;;;;;;;56.95;27.63;;;;;;;;;;5055116;28;20123;-63
2021/10/09 16:32:44;;;;;;;62.30;29.50;;;;;;;;;;5060580;28;20416;-63
2021/10/09 16:35:11;;;;;;;60.03;30.92;;;;;;;;;;5054877;28;20481;-64
2021/10/09 16:37:38;;;;;;;63.38;32.42;;;;;;;;;;5056838;28;20040;-63
2021/10/09 16:40:05;;;;;;;65.25;32.17;;;;;;;;;;5065202;28;20467;-63
2021/10/09 16:42:31;;;;;;;58.45;29.63;;;;;;;;;;5068431;28;20602;-63
2021/10/09 16:44:57;;;;;;;59.78;29.52;;;;;;;;;;5053450;28;20059;-64
2021/10/09 16:47:24;;;;;;;66.72;30.50;;;;;;;;;;5066878;28;20441;-64
2021/10/09 16:49:50;;;;;;;55.55;28.85;;;;;;;;;;5051621;28;20048;-64
2021/10/09 16:52:16;;;;;;;64.05;28.95;;;;;;;;;;5060883;28;20052;-63
2021/10/09 16:54:43;;;;;;;61.83;30.02;;;;;;;;;;5055378;28;20409;-63
2021/10/09 16:57:09;;;;;;;55.22;28.52;;;;;;;;;;5061993;28;20056;-64
2021/10/09 16:59:36;;;;;;;68.35;33.92;;;;;;;;;;5067508;28;20048;-63